createdAt,value
2018-05-27T00:00:05.367Z,18.80
2018-05-27T00:03:14.664Z,18.90
2018-05-27T00:06:24.108Z,18.60
2018-05-27T00:09:33.685Z,18.60
2018-05-27T00:12:43.192Z,18.50
2018-05-27T00:15:53.164Z,18.40
2018-05-27T00:19:04.041Z,18.40
2018-05-27T00:22:13.522Z,18.70
2018-05-27T00:25:23.961Z,18.50
2018-05-27T00:28:34.215Z,18.50
2018-05-27T00:31:43.628Z,18.50
2018-05-27T00:34:53.215Z,18.40
2018-05-27T00:38:04.753Z,18.50
2018-05-27T00:41:16.969Z,18.40
2018-05-27T00:44:26.528Z,18.30
2018-05-27T00:47:35.961Z,18.40
2018-05-27T00:50:45.975Z,18.30
2018-05-27T00:54:01.354Z,18.10
2018-05-27T00:57:11.186Z,18.10
2018-05-27T01:00:20.593Z,18.10
2018-05-27T01:03:30.223Z,18.00
2018-05-27T01:06:39.742Z,18.00
2018-05-27T01:09:49.780Z,18.40
2018-05-27T01:12:59.211Z,17.90
2018-05-27T01:16:08.574Z,18.00
2018-05-27T01:19:17.904Z,18.00
2018-05-27T01:22:28.607Z,17.60
2018-05-27T01:25:38.561Z,17.50
2018-05-27T01:28:48.104Z,17.50
2018-05-27T01:31:58.116Z,17.40
2018-05-27T01:35:10.213Z,17.50
2018-05-27T01:38:20.361Z,17.30
2018-05-27T01:41:29.737Z,17.40
2018-05-27T01:44:39.355Z,17.70
2018-05-27T01:47:49.065Z,17.10
2018-05-27T01:50:58.698Z,17.20
2018-05-27T01:54:08.849Z,17.30
2018-05-27T01:57:19.217Z,17.30
2018-05-27T02:00:28.718Z,17.20
2018-05-27T02:03:39.024Z,17.30
2018-05-27T02:06:49.285Z,16.90
2018-05-27T02:09:58.827Z,17.20
2018-05-27T02:13:09.738Z,16.90
2018-05-27T02:16:19.820Z,17.00
2018-05-27T02:19:29.197Z,16.80
2018-05-27T02:22:39.259Z,17.00
2018-05-27T02:25:49.109Z,16.90
2018-05-27T02:29:00.240Z,16.70
2018-05-27T02:32:11.094Z,16.70
2018-05-27T02:35:20.501Z,16.40
2018-05-27T02:38:30.108Z,16.10
2018-05-27T02:41:40.528Z,16.00
2018-05-27T02:44:50.049Z,16.00
2018-05-27T02:47:59.988Z,15.80
2018-05-27T02:54:20.121Z,16.00
2018-05-27T02:57:30.038Z,16.00
2018-05-27T03:00:40.133Z,16.10
2018-05-27T03:03:50.288Z,16.10
2018-05-27T03:07:00.586Z,16.10
2018-05-27T03:10:12.405Z,15.90
2018-05-27T03:13:22.216Z,16.00
2018-05-27T03:16:31.628Z,16.00
2018-05-27T03:19:41.660Z,15.90
2018-05-27T03:22:51.640Z,16.20
2018-05-27T03:26:01.890Z,15.80
2018-05-27T03:29:13.492Z,15.90
2018-05-27T03:32:24.878Z,16.00
2018-05-27T03:35:34.376Z,16.10
2018-05-27T03:38:44.129Z,15.90
2018-05-27T03:41:54.128Z,15.90
2018-05-27T03:45:04.128Z,16.10
2018-05-27T03:48:14.784Z,16.10
2018-05-27T03:51:24.857Z,16.20
2018-05-27T03:54:35.101Z,16.20
2018-05-27T03:57:45.217Z,16.20
2018-05-27T04:00:55.936Z,16.20
2018-05-27T04:04:23.304Z,16.20
2018-05-27T04:07:50.669Z,16.50
2018-05-27T04:11:00.053Z,16.50
2018-05-27T04:14:09.656Z,16.50
2018-05-27T04:17:18.966Z,16.20
2018-05-27T04:20:29.284Z,16.40
2018-05-27T04:23:38.824Z,16.20
2018-05-27T04:26:49.088Z,16.40
2018-05-27T04:29:59.416Z,16.50
2018-05-27T04:33:09.722Z,16.50
2018-05-27T04:36:19.964Z,16.50
2018-05-27T04:39:29.433Z,16.70
2018-05-27T04:42:39.645Z,16.60
2018-05-27T04:45:49.901Z,16.70
2018-05-27T04:49:00.372Z,16.80
2018-05-27T04:52:09.808Z,16.60
2018-05-27T04:55:19.276Z,16.80
2018-05-27T04:58:28.791Z,17.00
2018-05-27T05:01:39.671Z,17.10
2018-05-27T05:04:49.107Z,17.50
2018-05-27T05:07:58.477Z,17.30
2018-05-27T05:11:09.342Z,17.40
2018-05-27T05:14:19.516Z,17.50
2018-05-27T05:17:29.040Z,17.90
2018-05-27T05:20:39.084Z,18.10
2018-05-27T05:23:48.534Z,17.60
2018-05-27T05:26:58.063Z,17.60
2018-05-27T05:30:07.413Z,18.10
2018-05-27T05:33:17.005Z,18.10
2018-05-27T05:36:26.629Z,18.30
2018-05-27T05:39:36.225Z,18.00
2018-05-27T05:42:45.885Z,18.10
2018-05-27T05:45:55.596Z,18.10
2018-05-27T05:49:05.621Z,18.30
2018-05-27T05:52:15.391Z,18.20
2018-05-27T05:55:29.071Z,18.30
2018-05-27T05:58:38.424Z,18.60
2018-05-27T06:01:47.885Z,18.80
2018-05-27T06:04:58.272Z,19.10
2018-05-27T06:08:07.654Z,19.20
2018-05-27T06:11:17.102Z,19.20
2018-05-27T06:14:27.284Z,19.20
2018-05-27T06:17:37.648Z,19.30
2018-05-27T06:20:47.985Z,19.40
2018-05-27T06:23:57.324Z,19.50
2018-05-27T06:27:06.856Z,19.60
2018-05-27T06:30:17.113Z,19.70
2018-05-27T06:33:26.954Z,19.90
2018-05-27T06:36:40.724Z,19.90
2018-05-27T06:39:50.381Z,19.50
2018-05-27T06:43:00.616Z,20.10
2018-05-27T06:46:10.184Z,20.20
2018-05-27T06:49:19.619Z,20.50
2018-05-27T06:52:29.112Z,20.20
2018-05-27T06:55:38.481Z,20.80
2018-05-27T06:58:49.678Z,20.60
2018-05-27T07:02:00.049Z,20.80
2018-05-27T07:05:10.106Z,20.60
2018-05-27T07:08:19.524Z,21.30
2018-05-27T07:11:28.856Z,20.90
2018-05-27T07:14:39.121Z,21.20
2018-05-27T07:17:48.551Z,21.30
2018-05-27T07:24:10.461Z,21.50
2018-05-27T07:27:19.813Z,21.60
2018-05-27T07:30:30.183Z,21.90
2018-05-27T07:33:43.167Z,21.80
2018-05-27T07:36:56.122Z,22.10
2018-05-27T07:40:06.269Z,22.20
2018-05-27T07:43:17.624Z,22.40
2018-05-27T07:46:27.821Z,22.50
2018-05-27T07:52:49.932Z,22.60
2018-05-27T07:55:59.293Z,23.00
2018-05-27T07:59:09.185Z,22.80
2018-05-27T08:02:19.341Z,23.00
2018-05-27T08:05:29.284Z,23.20
2018-05-27T08:08:38.637Z,23.40
2018-05-27T08:11:48.096Z,23.40
2018-05-27T08:14:58.273Z,23.20
2018-05-27T08:18:10.349Z,23.50
2018-05-27T08:21:21.303Z,23.60
2018-05-27T08:24:32.409Z,23.80
2018-05-27T08:27:43.002Z,24.00
2018-05-27T08:34:04.637Z,24.40
2018-05-27T08:37:14.169Z,24.10
2018-05-27T08:40:25.856Z,24.40
2018-05-27T08:43:36.053Z,24.90
2018-05-27T08:46:48.650Z,25.30
2018-05-27T08:49:58.201Z,25.40
2018-05-27T08:53:08.326Z,25.30
2018-05-27T08:56:17.757Z,25.70
2018-05-27T08:59:27.190Z,26.20
2018-05-27T09:02:37.548Z,25.70
2018-05-27T09:05:47.256Z,26.00
2018-05-27T09:08:57.811Z,26.10
2018-05-27T09:12:07.382Z,25.90
2018-05-27T09:15:17.929Z,26.20
2018-05-27T09:18:27.997Z,26.80
2018-05-27T09:21:38.260Z,26.80
2018-05-27T09:24:48.300Z,26.50
2018-05-27T09:27:58.127Z,26.40
2018-05-27T09:31:07.539Z,26.60
2018-05-27T09:34:17.079Z,27.20
2018-05-27T09:37:28.668Z,27.60
2018-05-27T09:40:43.856Z,28.00
2018-05-27T09:43:53.348Z,28.60
2018-05-27T09:47:04.067Z,28.40
2018-05-27T09:50:14.508Z,28.10
2018-05-27T09:53:24.090Z,28.40
2018-05-27T09:56:33.696Z,28.60
2018-05-27T09:59:43.968Z,29.50
2018-05-27T10:02:53.434Z,29.50
2018-05-27T10:06:03.655Z,30.50
2018-05-27T10:09:17.200Z,31.60
2018-05-27T10:12:27.809Z,31.60
2018-05-27T10:15:37.237Z,32.30
2018-05-27T10:18:46.739Z,31.20
2018-05-27T10:22:00.006Z,32.30
2018-05-27T10:25:10.267Z,32.60
2018-05-27T10:28:19.773Z,32.90
2018-05-27T10:31:29.551Z,33.50
2018-05-27T10:34:38.948Z,33.70
2018-05-27T10:37:48.401Z,33.20
2018-05-27T10:40:57.909Z,33.50
2018-05-27T10:44:07.493Z,33.50
2018-05-27T10:47:16.863Z,33.40
2018-05-27T10:50:26.203Z,33.50
2018-05-27T10:53:35.656Z,32.90
2018-05-27T10:56:45.145Z,32.40
2018-05-27T10:59:55.333Z,32.70
2018-05-27T11:03:05.460Z,33.30
2018-05-27T11:06:14.840Z,32.90
2018-05-27T11:09:25.432Z,33.10
2018-05-27T11:12:34.830Z,32.60
2018-05-27T11:15:46.506Z,32.40
2018-05-27T11:18:57.111Z,33.60
2018-05-27T11:22:07.633Z,33.60
2018-05-27T11:25:21.869Z,34.50
2018-05-27T11:28:31.993Z,34.10
2018-05-27T11:31:41.405Z,33.70
2018-05-27T11:34:50.812Z,34.70
2018-05-27T11:38:00.261Z,35.30
2018-05-27T11:41:09.596Z,34.90
2018-05-27T11:44:19.329Z,35.20
2018-05-27T11:47:28.857Z,34.70
2018-05-27T11:50:38.195Z,34.60
2018-05-27T11:53:47.715Z,35.70
2018-05-27T11:56:57.997Z,34.70
2018-05-27T12:00:07.370Z,34.90
2018-05-27T12:03:16.726Z,35.10
2018-05-27T12:06:26.960Z,35.90
2018-05-27T12:09:36.411Z,36.00
2018-05-27T12:12:45.862Z,35.60
2018-05-27T12:15:55.162Z,35.80
2018-05-27T12:19:05.742Z,35.60
2018-05-27T12:22:22.822Z,33.70
2018-05-27T12:25:44.262Z,34.70
2018-05-27T12:29:01.435Z,34.50
2018-05-27T12:32:19.698Z,35.30
2018-05-27T12:35:29.156Z,34.00
2018-05-27T12:38:38.564Z,35.90
2018-05-27T12:41:48.574Z,36.50
2018-05-27T12:44:57.968Z,35.50
2018-05-27T12:48:07.296Z,34.90
2018-05-27T12:51:20.654Z,33.70
2018-05-27T12:54:30.791Z,34.10
2018-05-27T12:57:41.691Z,33.60
2018-05-27T13:00:52.001Z,33.70
2018-05-27T13:04:01.438Z,33.60
2018-05-27T13:07:15.049Z,33.80
2018-05-27T13:10:24.536Z,33.70
2018-05-27T13:16:46.346Z,35.00
2018-05-27T13:19:57.320Z,36.10
2018-05-27T13:23:07.545Z,37.60
2018-05-27T13:26:16.917Z,38.00
2018-05-27T13:29:26.561Z,38.60
2018-05-27T13:32:36.096Z,40.00
2018-05-27T13:35:46.360Z,38.60
2018-05-27T13:38:56.468Z,36.90
2018-05-27T13:42:07.781Z,35.00
2018-05-27T13:45:17.501Z,33.90
2018-05-27T13:48:27.048Z,34.00
2018-05-27T13:51:36.544Z,33.50
2018-05-27T13:54:45.796Z,32.80
2018-05-27T13:57:55.219Z,33.00
2018-05-27T14:01:04.664Z,32.50
2018-05-27T14:04:14.299Z,32.50
2018-05-27T14:07:23.816Z,31.20
2018-05-27T14:10:33.150Z,31.20
2018-05-27T14:13:42.678Z,31.00
2018-05-27T14:16:52.969Z,31.00
2018-05-27T14:20:02.967Z,31.30
2018-05-27T14:23:12.840Z,31.20
2018-05-27T14:26:23.114Z,30.90
2018-05-27T14:29:33.624Z,31.00
2018-05-27T14:32:43.528Z,30.70
2018-05-27T14:35:53.960Z,30.50
2018-05-27T14:39:03.836Z,30.40
2018-05-27T14:42:13.299Z,30.00
2018-05-27T14:45:23.493Z,29.40
2018-05-27T14:48:33.701Z,28.90
2018-05-27T14:51:43.565Z,29.00
2018-05-27T14:54:53.124Z,29.20
2018-05-27T14:58:02.564Z,29.60
2018-05-27T15:01:12.104Z,29.40
2018-05-27T15:04:21.997Z,29.60
2018-05-27T15:07:35.559Z,29.20
2018-05-27T15:10:45.113Z,29.10
2018-05-27T15:13:55.000Z,28.10
2018-05-27T15:17:05.413Z,27.50
2018-05-27T15:20:15.454Z,27.10
2018-05-27T15:23:25.233Z,25.90
2018-05-27T15:26:35.238Z,25.20
2018-05-27T15:29:45.840Z,25.10
2018-05-27T15:32:56.142Z,24.60
2018-05-27T15:36:06.802Z,24.60
2018-05-27T15:42:28.031Z,24.70
2018-05-27T15:45:37.849Z,24.40
2018-05-27T15:48:48.217Z,24.30
2018-05-27T15:51:58.365Z,24.30
2018-05-27T15:55:08.732Z,24.20
2018-05-27T15:58:18.528Z,23.70
2018-05-27T16:01:27.883Z,24.00
2018-05-27T16:04:37.630Z,23.30
2018-05-27T16:07:47.235Z,23.40
2018-05-27T16:10:56.647Z,23.30
2018-05-27T16:14:06.879Z,23.70
2018-05-27T16:17:16.258Z,23.40
2018-05-27T16:20:27.669Z,24.00
2018-05-27T16:23:37.242Z,24.80
2018-05-27T16:26:47.401Z,24.70
2018-05-27T16:29:57.024Z,25.10
2018-05-27T16:33:06.635Z,24.90
2018-05-27T16:36:16.062Z,25.00
2018-05-27T16:39:25.539Z,24.70
2018-05-27T16:42:34.981Z,24.70
2018-05-27T16:45:44.548Z,24.40
2018-05-27T16:48:54.723Z,24.10
2018-05-27T16:52:04.656Z,23.90
2018-05-27T16:55:14.885Z,23.60
2018-05-27T16:58:24.949Z,23.40
2018-05-27T17:01:34.432Z,23.80
2018-05-27T17:04:44.664Z,23.30
2018-05-27T17:07:54.124Z,23.20
2018-05-27T17:11:04.534Z,23.20
2018-05-27T17:14:13.862Z,23.00
2018-05-27T17:20:40.240Z,23.50
2018-05-27T17:23:49.495Z,23.20
2018-05-27T17:26:59.525Z,23.60
2018-05-27T17:30:08.864Z,23.80
2018-05-27T17:33:18.649Z,24.10
2018-05-27T17:36:28.301Z,24.30
2018-05-27T17:39:40.086Z,24.10
2018-05-27T17:42:51.929Z,24.20
2018-05-27T17:46:01.405Z,24.00
2018-05-27T17:49:10.778Z,24.10
2018-05-27T17:52:20.324Z,24.60
2018-05-27T17:55:30.710Z,24.50
2018-05-27T17:58:40.669Z,25.00
2018-05-27T18:01:50.574Z,26.00
2018-05-27T18:05:00.100Z,26.70
2018-05-27T18:08:11.494Z,28.10
2018-05-27T18:11:21.529Z,27.00
2018-05-27T18:14:30.860Z,28.70
2018-05-27T18:17:40.280Z,29.70
2018-05-27T18:20:50.182Z,27.50
2018-05-27T18:24:04.658Z,26.50
2018-05-27T18:27:15.587Z,25.50
2018-05-27T18:30:25.632Z,25.10
2018-05-27T18:33:35.298Z,24.30
2018-05-27T18:36:47.474Z,23.00
2018-05-27T18:39:56.941Z,24.30
2018-05-27T18:43:07.321Z,24.30
2018-05-27T18:46:17.225Z,24.00
2018-05-27T18:49:28.001Z,23.50
2018-05-27T18:52:38.864Z,23.20
2018-05-27T18:55:49.641Z,23.10
2018-05-27T18:59:00.307Z,23.10
2018-05-27T19:02:11.162Z,22.70
2018-05-27T19:05:20.916Z,22.40
2018-05-27T19:08:30.249Z,22.10
2018-05-27T19:11:39.668Z,22.10
2018-05-27T19:14:50.750Z,22.20
2018-05-27T19:18:01.426Z,22.00
2018-05-27T19:21:10.976Z,22.20
2018-05-27T19:24:20.357Z,22.00
2018-05-27T19:27:30.244Z,21.60
2018-05-27T19:30:41.045Z,21.70
2018-05-27T19:33:51.301Z,21.60
2018-05-27T19:37:00.794Z,21.70
2018-05-27T19:40:11.217Z,21.50
2018-05-27T19:43:20.875Z,21.50
2018-05-27T19:46:31.264Z,21.50
2018-05-27T19:49:42.269Z,21.40
2018-05-27T19:52:52.769Z,21.40
2018-05-27T19:56:02.160Z,21.30
2018-05-27T19:59:12.144Z,21.30
2018-05-27T20:02:22.740Z,21.50
2018-05-27T20:05:33.328Z,21.30
2018-05-27T20:08:43.697Z,21.20
2018-05-27T20:11:54.301Z,21.20
2018-05-27T20:15:03.955Z,21.10
2018-05-27T20:18:14.653Z,21.20
2018-05-27T20:21:24.531Z,21.00
2018-05-27T20:24:34.681Z,21.30
2018-05-27T20:27:44.928Z,21.10
2018-05-27T20:30:55.322Z,21.10
2018-05-27T20:34:05.232Z,21.30
2018-05-27T20:37:15.447Z,21.00
2018-05-27T20:40:25.209Z,21.00
2018-05-27T20:43:37.194Z,20.90
2018-05-27T20:46:47.869Z,20.90
2018-05-27T20:50:00.643Z,20.90
2018-05-27T20:53:11.420Z,20.70
2018-05-27T20:59:33.664Z,20.50
2018-05-27T21:02:44.924Z,20.60
2018-05-27T21:05:54.991Z,20.80
2018-05-27T21:09:04.277Z,20.60
2018-05-27T21:12:14.600Z,20.30
2018-05-27T21:15:24.157Z,20.40
2018-05-27T21:18:33.995Z,19.20
2018-05-27T21:21:43.448Z,19.90
2018-05-27T21:24:54.093Z,19.90
2018-05-27T21:28:03.530Z,19.80
2018-05-27T21:31:12.984Z,20.00
2018-05-27T21:34:22.604Z,19.50
2018-05-27T21:37:31.981Z,19.40
2018-05-27T21:40:41.548Z,19.30
2018-05-27T21:43:51.501Z,19.50
2018-05-27T21:47:01.777Z,19.50
2018-05-27T21:50:11.209Z,19.60
2018-05-27T21:53:20.689Z,19.20
2018-05-27T21:56:30.332Z,19.20
2018-05-27T21:59:40.133Z,18.90
2018-05-27T22:02:51.380Z,19.00
2018-05-27T22:06:02.098Z,19.10
2018-05-27T22:09:11.643Z,18.80
2018-05-27T22:12:21.496Z,18.70
2018-05-27T22:15:31.394Z,17.70
2018-05-27T22:18:41.270Z,18.60
2018-05-27T22:21:50.730Z,19.00
2018-05-27T22:25:00.937Z,18.90
2018-05-27T22:28:10.760Z,18.70
2018-05-27T22:31:21.054Z,18.90
2018-05-27T22:34:31.042Z,18.80
2018-05-27T22:37:40.345Z,19.00
2018-05-27T22:40:50.128Z,18.50
2018-05-27T22:43:59.484Z,18.60
2018-05-27T22:47:08.905Z,18.30
2018-05-27T22:50:20.010Z,18.40
2018-05-27T22:53:33.275Z,18.50
2018-05-27T22:56:43.110Z,18.30
2018-05-27T22:59:52.508Z,18.40
2018-05-27T23:03:01.789Z,18.30
2018-05-27T23:09:22.243Z,18.50
2018-05-27T23:12:31.569Z,18.60
2018-05-27T23:15:41.018Z,18.10
2018-05-27T23:18:51.392Z,18.30
2018-05-27T23:22:01.621Z,18.20
2018-05-27T23:25:11.925Z,18.20
2018-05-27T23:28:21.462Z,18.00
2018-05-27T23:31:30.889Z,18.10
2018-05-27T23:34:40.301Z,18.20
2018-05-27T23:37:49.807Z,18.50
2018-05-27T23:41:01.378Z,18.30
2018-05-27T23:44:10.804Z,18.10
2018-05-27T23:47:20.508Z,18.30
2018-05-27T23:50:30.713Z,18.00
2018-05-27T23:53:40.642Z,18.20
2018-05-27T23:56:50.749Z,17.90
